createdAt,value
2023-01-04T00:00:09.960Z,101657.59
2023-01-04T00:02:37.481Z,101636.25
2023-01-04T00:05:05.612Z,101638.53
2023-01-04T00:07:32.946Z,101642.78
2023-01-04T00:10:00.291Z,101635.94
2023-01-04T00:12:27.681Z,101640.38
2023-01-04T00:14:55.042Z,101639.56
2023-01-04T00:17:23.713Z,101625.00
2023-01-04T00:19:51.057Z,101626.91
2023-01-04T00:22:18.410Z,101620.78
2023-01-04T00:24:45.759Z,101615.97
2023-01-04T00:27:13.105Z,101618.75
2023-01-04T00:29:40.515Z,101604.44
2023-01-04T00:32:07.886Z,101601.66
2023-01-04T00:34:36.566Z,101600.63
2023-01-04T00:37:03.990Z,101595.22
2023-01-04T00:39:31.379Z,101583.16
2023-01-04T00:42:05.021Z,101566.16
2023-01-04T00:44:33.904Z,101574.75
2023-01-04T00:47:03.090Z,101554.00
2023-01-04T00:49:31.673Z,101554.22
2023-01-04T00:52:00.604Z,101547.03
2023-01-04T00:54:28.037Z,101550.53
2023-01-04T00:56:55.430Z,101554.84
2023-01-04T00:59:23.330Z,101540.47
2023-01-04T01:01:51.438Z,101533.50
2023-01-04T01:04:20.681Z,101530.81
2023-01-04T01:06:48.309Z,101509.69
2023-01-04T01:09:17.824Z,101509.88
2023-01-04T01:11:45.203Z,101501.88
2023-01-04T01:14:16.884Z,101494.47
2023-01-04T01:16:55.092Z,101477.66
2023-01-04T01:19:23.011Z,101487.66
2023-01-04T01:21:50.388Z,101481.97
2023-01-04T01:24:20.135Z,101475.34
2023-01-04T01:26:47.465Z,101480.13
2023-01-04T01:29:14.988Z,101470.63
2023-01-04T01:31:42.643Z,101469.81
2023-01-04T01:34:10.259Z,101462.41
2023-01-04T01:36:37.940Z,101475.97
2023-01-04T01:39:05.518Z,101453.34
2023-01-04T01:41:35.582Z,101454.16
2023-01-04T01:44:04.359Z,101454.41
2023-01-04T01:46:36.392Z,101441.84
2023-01-04T01:49:06.322Z,101437.69
2023-01-04T01:51:34.165Z,101429.91
2023-01-04T01:54:04.484Z,101434.25
2023-01-04T01:56:36.680Z,101425.19
2023-01-04T01:59:04.439Z,101427.47
2023-01-04T02:01:31.873Z,101431.59
2023-01-04T02:03:59.425Z,101419.50
2023-01-04T02:06:30.666Z,101402.03
2023-01-04T02:08:58.432Z,101406.91
2023-01-04T02:11:26.850Z,101398.91
2023-01-04T02:14:13.849Z,101394.66
2023-01-04T02:17:03.049Z,101391.75
2023-01-04T02:19:47.115Z,101372.44
2023-01-04T02:22:32.594Z,101366.69
2023-01-04T02:25:19.740Z,101352.28
2023-01-04T02:27:50.537Z,101359.28
2023-01-04T02:31:00.663Z,101339.13
2023-01-04T02:33:43.745Z,101329.13
2023-01-04T02:36:14.720Z,101325.00
2023-01-04T02:38:50.502Z,101314.31
2023-01-04T02:41:23.763Z,101309.19
2023-01-04T02:44:12.311Z,101306.28
2023-01-04T02:46:43.267Z,101299.28
2023-01-04T02:49:29.597Z,101291.94
2023-01-04T02:51:56.940Z,101286.78
2023-01-04T02:54:27.183Z,101279.59
2023-01-04T02:57:05.500Z,101270.97
2023-01-04T02:59:43.962Z,101273.03
2023-01-04T03:02:41.469Z,101262.34
2023-01-04T03:05:33.946Z,101247.97
2023-01-04T03:08:07.104Z,101237.50
2023-01-04T03:10:37.648Z,101224.13
2023-01-04T03:13:07.450Z,101213.44
2023-01-04T03:15:35.992Z,101210.78
2023-01-04T03:18:10.309Z,101204.81
2023-01-04T03:20:39.031Z,101211.84
2023-01-04T03:23:26.269Z,101183.69
2023-01-04T03:26:13.613Z,101176.28
2023-01-04T03:29:00.399Z,101170.94
2023-01-04T03:31:48.222Z,101140.72
2023-01-04T03:34:33.410Z,101148.13
2023-01-04T03:37:08.607Z,101152.44
2023-01-04T03:40:03.063Z,101126.38
2023-01-04T03:42:52.071Z,101115.06
2023-01-04T03:45:38.995Z,101107.88
2023-01-04T03:48:30.163Z,101118.75
2023-01-04T03:51:02.024Z,101089.56
2023-01-04T03:53:31.669Z,101093.28
2023-01-04T03:55:59.925Z,101101.69
2023-01-04T03:58:27.799Z,101083.41
2023-01-04T04:01:04.034Z,101064.94
2023-01-04T04:03:49.706Z,101074.16
2023-01-04T04:06:35.366Z,101062.88
2023-01-04T04:09:04.293Z,101043.34
2023-01-04T04:11:31.711Z,101050.75
2023-01-04T04:14:00.212Z,101030.41
2023-01-04T04:16:28.144Z,101041.69
2023-01-04T04:18:55.911Z,101030.22
2023-01-04T04:21:23.463Z,101018.69
2023-01-04T04:23:51.053Z,101013.16
2023-01-04T04:26:19.797Z,101010.69
2023-01-04T04:28:47.320Z,100995.69
2023-01-04T04:31:14.780Z,101000.41
2023-01-04T04:33:42.178Z,100984.19
2023-01-04T04:36:10.427Z,100980.06
2023-01-04T04:38:37.873Z,100983.38
2023-01-04T04:41:25.985Z,100984.38
2023-01-04T04:43:55.093Z,100972.91
2023-01-04T04:46:22.777Z,100975.16
2023-01-04T04:48:50.157Z,100976.38
2023-01-04T04:51:17.717Z,100962.81
2023-01-04T04:53:45.085Z,100952.34
2023-01-04T04:56:12.836Z,100966.91
2023-01-04T04:58:40.203Z,100946.22
2023-01-04T05:01:08.982Z,100940.66
2023-01-04T05:03:36.601Z,100943.94
2023-01-04T05:06:04.052Z,100925.50
2023-01-04T05:08:31.488Z,100913.16
2023-01-04T05:10:58.946Z,100918.94
2023-01-04T05:13:25.396Z,100902.09
2023-01-04T05:15:55.108Z,100884.25
2023-01-04T05:18:24.184Z,100883.63
2023-01-04T05:20:52.063Z,100877.88
2023-01-04T05:23:20.752Z,100879.31
2023-01-04T05:25:52.106Z,100854.50
2023-01-04T05:28:19.804Z,100852.81
2023-01-04T05:30:52.235Z,100836.88
2023-01-04T05:33:21.214Z,100838.06
2023-01-04T05:35:50.348Z,100838.69
2023-01-04T05:38:17.922Z,100828.19
2023-01-04T05:40:45.609Z,100817.50
2023-01-04T05:43:14.030Z,100822.00
2023-01-04T05:45:41.564Z,100814.19
2023-01-04T05:48:08.923Z,100811.06
2023-01-04T05:50:36.321Z,100792.38
2023-01-04T05:53:05.415Z,100781.91
2023-01-04T05:55:32.945Z,100774.31
2023-01-04T05:58:00.527Z,100766.66
2023-01-04T06:00:28.246Z,100747.78
2023-01-04T06:02:56.979Z,100753.97
2023-01-04T06:05:24.458Z,100759.59
2023-01-04T06:07:52.061Z,100755.31
2023-01-04T06:10:21.284Z,100735.28
2023-01-04T06:12:49.477Z,100742.03
2023-01-04T06:15:17.002Z,100745.53
2023-01-04T06:17:44.355Z,100732.59
2023-01-04T06:20:12.793Z,100727.94
2023-01-04T06:22:41.439Z,100729.09
2023-01-04T06:25:09.811Z,100714.06
2023-01-04T06:27:38.742Z,100729.47
2023-01-04T06:30:07.227Z,100712.56
2023-01-04T06:32:35.099Z,100710.31
2023-01-04T06:35:03.349Z,100707.38
2023-01-04T06:37:31.347Z,100703.88
2023-01-04T06:39:59.042Z,100695.75
2023-01-04T06:42:44.050Z,100687.78
2023-01-04T06:45:13.522Z,100687.31
2023-01-04T06:47:41.471Z,100685.28
2023-01-04T06:50:10.108Z,100680.09
2023-01-04T06:52:37.642Z,100674.31
2023-01-04T06:55:05.797Z,100665.03
2023-01-04T06:57:33.793Z,100664.59
2023-01-04T07:00:01.220Z,100658.34
2023-01-04T07:02:30.213Z,100651.97
2023-01-04T07:04:57.873Z,100652.56
2023-01-04T07:07:25.371Z,100648.41
2023-01-04T07:09:52.763Z,100653.69
2023-01-04T07:12:20.227Z,100648.13
2023-01-04T07:14:47.703Z,100640.53
2023-01-04T07:17:15.141Z,100645.81
2023-01-04T07:19:43.926Z,100634.22
2023-01-04T07:22:11.437Z,100639.56
2023-01-04T07:24:40.000Z,100634.63
2023-01-04T07:27:07.690Z,100630.75
2023-01-04T07:29:35.091Z,100624.34
2023-01-04T07:32:02.698Z,100611.69
2023-01-04T07:34:30.578Z,100607.75
2023-01-04T07:36:59.464Z,100612.16
2023-01-04T07:39:26.952Z,100606.00
2023-01-04T07:41:54.342Z,100611.69
2023-01-04T07:44:22.488Z,100601.75
2023-01-04T07:46:50.044Z,100605.22
2023-01-04T07:49:18.994Z,100605.84
2023-01-04T07:51:46.976Z,100599.22
2023-01-04T07:54:16.071Z,100600.84
2023-01-04T07:56:43.602Z,100586.31
2023-01-04T07:59:11.946Z,100598.66
2023-01-04T08:01:40.382Z,100584.25
2023-01-04T08:04:09.086Z,100587.41
2023-01-04T08:06:37.853Z,100581.38
2023-01-04T08:09:06.860Z,100580.78
2023-01-04T08:11:35.940Z,100573.34
2023-01-04T08:14:03.461Z,100577.06
2023-01-04T08:16:32.774Z,100574.53
2023-01-04T08:19:02.365Z,100579.16
2023-01-04T08:21:30.915Z,100571.66
2023-01-04T08:23:58.436Z,100553.34
2023-01-04T08:26:26.125Z,100571.78
2023-01-04T08:28:56.391Z,100568.88
2023-01-04T08:31:26.414Z,100579.09
2023-01-04T08:33:54.696Z,100561.75
2023-01-04T08:36:27.042Z,100567.47
2023-01-04T08:39:00.064Z,100582.03
2023-01-04T08:44:18.168Z,100580.31
2023-01-04T08:46:45.637Z,100562.34
2023-01-04T08:49:13.113Z,100575.06
2023-01-04T08:51:40.686Z,100563.75
2023-01-04T08:54:08.115Z,100540.03
2023-01-04T08:56:35.677Z,100554.44
2023-01-04T08:59:03.476Z,100556.22
2023-01-04T09:01:32.846Z,100527.19
2023-01-04T09:04:00.600Z,100543.16
2023-01-04T09:06:28.590Z,100539.19
2023-01-04T09:08:57.002Z,100537.56
2023-01-04T09:11:24.870Z,100533.50
2023-01-04T09:13:59.717Z,100538.84
2023-01-04T09:16:33.325Z,100528.72
2023-01-04T09:19:00.737Z,100539.19
2023-01-04T09:21:28.190Z,100547.47
2023-01-04T09:23:57.186Z,100533.00
2023-01-04T09:26:25.185Z,100521.56
2023-01-04T09:28:53.666Z,100517.84
2023-01-04T09:31:23.628Z,100506.09
2023-01-04T09:36:40.181Z,100516.91
2023-01-04T09:39:07.732Z,100519.09
2023-01-04T09:41:37.632Z,100519.91
2023-01-04T09:44:14.808Z,100544.97
2023-01-04T09:46:47.832Z,100536.00
2023-01-04T09:49:19.142Z,100521.28
2023-01-04T09:51:51.912Z,100523.16
2023-01-04T09:54:21.219Z,100512.78
2023-01-04T09:56:51.827Z,100516.03
2023-01-04T09:59:22.446Z,100507.16
2023-01-04T10:01:53.631Z,100505.06
2023-01-04T10:04:25.590Z,100498.69
2023-01-04T10:06:53.154Z,100515.59
2023-01-04T10:09:20.983Z,100490.75
2023-01-04T10:12:06.919Z,100491.56
2023-01-04T10:14:45.787Z,100497.72
2023-01-04T10:17:44.431Z,100485.25
2023-01-04T10:23:21.841Z,100484.88
2023-01-04T10:25:52.888Z,100474.69
2023-01-04T10:28:42.747Z,100470.53
2023-01-04T10:31:38.864Z,100463.88
2023-01-04T10:34:07.554Z,100463.41
2023-01-04T10:36:36.381Z,100455.38
2023-01-04T10:39:06.317Z,100459.44
2023-01-04T10:41:36.947Z,100462.59
2023-01-04T10:44:14.228Z,100455.19
2023-01-04T10:46:46.188Z,100450.19
2023-01-04T10:49:17.737Z,100449.13
2023-01-04T10:51:50.754Z,100439.69
2023-01-04T10:54:25.756Z,100437.00
2023-01-04T10:57:02.330Z,100434.31
2023-01-04T10:59:39.669Z,100425.06
2023-01-04T11:02:15.810Z,100441.06
2023-01-04T11:04:45.985Z,100419.09
2023-01-04T11:07:19.465Z,100413.28
2023-01-04T11:09:52.186Z,100418.16
2023-01-04T11:12:22.173Z,100401.78
2023-01-04T11:14:50.026Z,100406.03
2023-01-04T11:17:17.616Z,100400.25
2023-01-04T11:19:45.230Z,100403.91
2023-01-04T11:22:17.887Z,100401.88
2023-01-04T11:25:07.808Z,100398.97
2023-01-04T11:27:38.320Z,100387.50
2023-01-04T11:30:14.627Z,100383.25
2023-01-04T11:32:47.193Z,100394.56
2023-01-04T11:35:14.580Z,100374.41
2023-01-04T11:37:43.655Z,100389.75
2023-01-04T11:40:22.936Z,100378.94
2023-01-04T11:42:52.399Z,100400.50
2023-01-04T11:45:23.263Z,100377.16
2023-01-04T11:47:52.976Z,100375.88
2023-01-04T11:50:36.891Z,100372.63
2023-01-04T11:53:23.217Z,100374.81
2023-01-04T11:55:50.984Z,100370.75
2023-01-04T11:58:19.262Z,100367.88
2023-01-04T12:00:51.510Z,100361.38
2023-01-04T12:03:22.241Z,100358.78
2023-01-04T12:05:49.582Z,100369.03
2023-01-04T12:08:28.708Z,100361.22
2023-01-04T12:10:56.262Z,100361.75
2023-01-04T12:13:23.727Z,100357.06
2023-01-04T12:15:59.513Z,100356.47
2023-01-04T12:18:29.328Z,100359.91
2023-01-04T12:20:57.035Z,100346.31
2023-01-04T12:23:26.205Z,100339.56
2023-01-04T12:25:54.557Z,100343.94
2023-01-04T12:28:33.242Z,100331.34
2023-01-04T12:31:29.884Z,100324.97
2023-01-04T12:33:58.743Z,100332.22
2023-01-04T12:36:57.415Z,100345.38
2023-01-04T12:39:39.047Z,100333.03
2023-01-04T12:42:25.843Z,100325.34
2023-01-04T12:45:21.978Z,100316.75
2023-01-04T12:48:11.678Z,100322.66
2023-01-04T12:51:46.994Z,100311.09
2023-01-04T12:54:31.559Z,100324.28
2023-01-04T12:57:26.832Z,100310.38
2023-01-04T12:59:58.080Z,100331.03
2023-01-04T13:02:27.447Z,100308.00
2023-01-04T13:05:35.559Z,100299.69
2023-01-04T13:07:48.628Z,100303.50
2023-01-04T13:10:30.397Z,100297.81
2023-01-04T13:13:14.490Z,100287.31
2023-01-04T13:15:49.413Z,100294.06
2023-01-04T13:18:33.070Z,100291.13
2023-01-04T13:21:01.326Z,100298.97
2023-01-04T13:23:28.852Z,100291.19
2023-01-04T13:25:56.247Z,100288.00
2023-01-04T13:28:24.918Z,100293.41
2023-01-04T13:31:00.822Z,100278.81
2023-01-04T13:33:29.010Z,100276.44
2023-01-04T13:36:02.942Z,100280.00
2023-01-04T13:38:31.499Z,100262.81
2023-01-04T13:40:58.934Z,100267.63
2023-01-04T13:43:46.166Z,100262.59
2023-01-04T13:46:16.600Z,100269.09
2023-01-04T13:48:47.649Z,100251.84
2023-01-04T13:51:17.414Z,100250.00
2023-01-04T13:53:53.975Z,100255.44
2023-01-04T13:56:22.933Z,100246.53
2023-01-04T13:58:52.045Z,100238.72
2023-01-04T14:01:22.317Z,100231.50
2023-01-04T14:03:51.460Z,100229.09
2023-01-04T14:06:22.511Z,100230.47
2023-01-04T14:08:57.407Z,100222.41
2023-01-04T14:11:44.665Z,100216.19
2023-01-04T14:14:21.093Z,100219.66
2023-01-04T14:16:48.768Z,100219.66
2023-01-04T14:19:43.835Z,100215.16
2023-01-04T14:22:35.394Z,100223.78
2023-01-04T14:25:48.495Z,100215.72
2023-01-04T14:28:43.155Z,100206.03
2023-01-04T14:31:27.330Z,100206.91
2023-01-04T14:33:55.340Z,100214.19
2023-01-04T14:36:26.671Z,100215.59
2023-01-04T14:39:01.878Z,100195.94
2023-01-04T14:41:33.258Z,100186.22
2023-01-04T14:44:10.963Z,100186.31
2023-01-04T14:46:39.142Z,100193.22
2023-01-04T14:49:06.626Z,100188.91
2023-01-04T14:51:37.862Z,100196.75
2023-01-04T14:54:05.628Z,100207.31
2023-01-04T14:56:33.617Z,100200.06
2023-01-04T14:59:03.593Z,100197.38
2023-01-04T15:01:32.430Z,100183.69
2023-01-04T15:04:00.280Z,100193.63
2023-01-04T15:06:28.652Z,100213.84
2023-01-04T15:08:56.070Z,100209.53
2023-01-04T15:11:23.519Z,100220.56
2023-01-04T15:13:50.907Z,100203.59
2023-01-04T15:16:19.077Z,100190.44
2023-01-04T15:18:47.947Z,100190.75
2023-01-04T15:21:15.730Z,100191.00
2023-01-04T15:23:43.196Z,100182.94
2023-01-04T15:26:12.152Z,100177.00
2023-01-04T15:28:39.920Z,100171.94
2023-01-04T15:31:10.979Z,100178.94
2023-01-04T15:33:38.662Z,100174.63
2023-01-04T15:36:09.423Z,100173.31
2023-01-04T15:38:36.843Z,100184.06
2023-01-04T15:41:06.019Z,100172.47
2023-01-04T15:43:36.372Z,100168.22
2023-01-04T15:46:07.220Z,100163.34
2023-01-04T15:48:34.928Z,100178.94
2023-01-04T15:51:08.506Z,100184.84
2023-01-04T15:53:36.117Z,100188.38
2023-01-04T15:56:08.458Z,100181.06
2023-01-04T15:58:36.072Z,100182.16
2023-01-04T16:01:08.986Z,100173.59
2023-01-04T16:03:36.474Z,100184.34
2023-01-04T16:06:09.788Z,100186.44
2023-01-04T16:08:37.226Z,100195.66
2023-01-04T16:11:12.001Z,100196.22
2023-01-04T16:13:39.495Z,100187.53
2023-01-04T16:16:07.762Z,100184.88
2023-01-04T16:18:35.374Z,100170.91
2023-01-04T16:21:08.363Z,100161.47
2023-01-04T16:23:35.990Z,100163.31
2023-01-04T16:26:05.322Z,100157.41
2023-01-04T16:28:32.794Z,100176.25
2023-01-04T16:31:00.525Z,100168.50
2023-01-04T16:33:28.217Z,100158.56
2023-01-04T16:36:04.339Z,100153.94
2023-01-04T16:38:33.362Z,100163.38
2023-01-04T16:41:02.672Z,100170.38
2023-01-04T16:43:31.049Z,100162.00
2023-01-04T16:46:19.782Z,100158.28
2023-01-04T16:48:49.443Z,100160.66
2023-01-04T16:51:17.205Z,100157.75
2023-01-04T16:53:46.020Z,100156.63
2023-01-04T16:56:15.055Z,100150.16
2023-01-04T16:58:44.784Z,100158.28
2023-01-04T17:01:14.489Z,100152.09
2023-01-04T17:03:43.034Z,100163.91
2023-01-04T17:06:13.082Z,100151.47
2023-01-04T17:08:40.717Z,100174.41
2023-01-04T17:11:50.825Z,100160.13
2023-01-04T17:13:58.442Z,100153.69
2023-01-04T17:16:30.989Z,100147.81
2023-01-04T17:19:03.519Z,100154.81
2023-01-04T17:21:34.346Z,100147.53
2023-01-04T17:24:02.264Z,100147.00
2023-01-04T17:26:32.811Z,100148.31
2023-01-04T17:29:02.161Z,100156.41
2023-01-04T17:31:31.419Z,100162.91
2023-01-04T17:33:58.976Z,100161.00
2023-01-04T17:36:26.735Z,100164.75
2023-01-04T17:38:54.139Z,100160.19
2023-01-04T17:41:25.803Z,100156.69
2023-01-04T17:44:00.183Z,100153.19
2023-01-04T17:46:31.697Z,100154.25
2023-01-04T17:49:21.518Z,100152.63
2023-01-04T17:51:47.404Z,100155.84
2023-01-04T17:54:15.335Z,100163.13
2023-01-04T17:56:42.693Z,100146.16
2023-01-04T17:59:12.484Z,100154.81
2023-01-04T18:01:39.955Z,100153.69
2023-01-04T18:04:08.882Z,100174.69
2023-01-04T18:06:37.522Z,100139.75
2023-01-04T18:09:06.981Z,100151.28
2023-01-04T18:11:34.779Z,100137.34
2023-01-04T18:14:05.881Z,100142.16
2023-01-04T18:16:55.714Z,100134.38
2023-01-04T18:19:23.465Z,100144.03
2023-01-04T18:21:50.883Z,100133.78
2023-01-04T18:24:35.831Z,100145.38
2023-01-04T18:29:52.695Z,100156.34
2023-01-04T18:32:21.813Z,100159.34
2023-01-04T18:34:49.195Z,100149.69
2023-01-04T18:37:18.142Z,100147.53
2023-01-04T18:39:45.538Z,100153.97
2023-01-04T18:42:12.882Z,100128.34
2023-01-04T18:44:46.040Z,100153.59
2023-01-04T18:47:15.963Z,100150.66
2023-01-04T18:49:44.719Z,100140.69
2023-01-04T18:52:12.429Z,100140.22
2023-01-04T18:54:39.868Z,100147.13
2023-01-04T18:57:07.438Z,100137.75
2023-01-04T18:59:35.105Z,100135.09
2023-01-04T19:02:03.625Z,100130.03
2023-01-04T19:04:32.249Z,100135.91
2023-01-04T19:07:03.971Z,100135.06
2023-01-04T19:09:31.591Z,100129.97
2023-01-04T19:11:59.038Z,100115.25
2023-01-04T19:14:26.443Z,100126.53
2023-01-04T19:16:53.967Z,100121.97
2023-01-04T19:19:21.476Z,100126.78
2023-01-04T19:21:49.215Z,100130.03
2023-01-04T19:24:17.928Z,100119.81
2023-01-04T19:26:45.305Z,100116.03
2023-01-04T19:29:12.811Z,100127.88
2023-01-04T19:31:40.225Z,100123.22
2023-01-04T19:34:09.738Z,100120.34
2023-01-04T19:36:37.354Z,100121.66
2023-01-04T19:39:08.132Z,100123.03
2023-01-04T19:41:37.957Z,100126.28
2023-01-04T19:44:06.990Z,100124.13
2023-01-04T19:46:34.572Z,100115.75
2023-01-04T19:49:02.138Z,100138.28
2023-01-04T19:51:29.538Z,100132.75
2023-01-04T19:53:57.258Z,100127.91
2023-01-04T19:56:24.696Z,100112.47
2023-01-04T19:58:53.474Z,100118.59
2023-01-04T20:01:22.498Z,100124.75
2023-01-04T20:03:50.256Z,100119.97
2023-01-04T20:06:18.133Z,100118.13
2023-01-04T20:08:45.645Z,100117.59
2023-01-04T20:11:13.330Z,100127.09
2023-01-04T20:13:41.284Z,100121.19
2023-01-04T20:16:10.290Z,100110.69
2023-01-04T20:18:38.716Z,100110.38
2023-01-04T20:21:10.492Z,100116.31
2023-01-04T20:23:38.500Z,100154.44
2023-01-04T20:28:33.650Z,100179.84
2023-01-04T20:31:01.975Z,100142.34
2023-01-04T20:33:31.381Z,100131.94
2023-01-04T20:35:59.201Z,100139.13
2023-01-04T20:38:26.637Z,100154.34
2023-01-04T20:40:54.039Z,100152.78
2023-01-04T20:43:37.187Z,100156.09
2023-01-04T20:46:06.742Z,100159.09
2023-01-04T20:48:35.585Z,100151.91
2023-01-04T20:51:07.136Z,100155.72
2023-01-04T20:53:36.047Z,100151.97
2023-01-04T20:56:08.186Z,100154.50
2023-01-04T20:58:36.015Z,100134.72
2023-01-04T21:01:05.289Z,100131.69
2023-01-04T21:03:32.980Z,100140.28
2023-01-04T21:06:03.270Z,100127.19
2023-01-04T21:08:31.135Z,100136.91
2023-01-04T21:10:58.950Z,100139.31
2023-01-04T21:13:27.578Z,100141.72
2023-01-04T21:15:55.513Z,100153.63
2023-01-04T21:18:23.080Z,100148.53
2023-01-04T21:20:50.763Z,100150.94
2023-01-04T21:23:27.357Z,100141.31
2023-01-04T21:25:54.760Z,100144.81
2023-01-04T21:28:22.611Z,100149.97
2023-01-04T21:30:50.538Z,100139.44
2023-01-04T21:33:18.565Z,100130.81
2023-01-04T21:35:45.938Z,100125.44
2023-01-04T21:38:13.460Z,100133.56
2023-01-04T21:40:42.723Z,100120.13
2023-01-04T21:43:16.828Z,100146.22
2023-01-04T21:45:44.252Z,100141.22
2023-01-04T21:48:11.650Z,100126.97
2023-01-04T21:50:39.049Z,100136.09
2023-01-04T21:53:06.444Z,100125.88
2023-01-04T21:55:35.106Z,100119.44
2023-01-04T21:58:04.106Z,100121.38
2023-01-04T22:00:31.496Z,100127.06
2023-01-04T22:02:58.888Z,100136.38
2023-01-04T22:05:26.353Z,100132.91
2023-01-04T22:07:53.752Z,100129.41
2023-01-04T22:10:22.101Z,100149.91
2023-01-04T22:12:50.307Z,100143.94
2023-01-04T22:15:19.118Z,100142.78
2023-01-04T22:17:46.519Z,100147.69
2023-01-04T22:20:13.946Z,100148.72
2023-01-04T22:22:41.327Z,100148.16
2023-01-04T22:25:09.697Z,100150.38
2023-01-04T22:27:37.152Z,100163.00
2023-01-04T22:30:06.055Z,100158.25
2023-01-04T22:32:34.751Z,100154.00
2023-01-04T22:35:02.125Z,100153.88
2023-01-04T22:37:29.495Z,100159.66
2023-01-04T22:39:56.886Z,100145.06
2023-01-04T22:42:24.240Z,100167.69
2023-01-04T22:44:51.600Z,100171.06
2023-01-04T22:47:19.014Z,100169.97
2023-01-04T22:49:48.233Z,100165.94
2023-01-04T22:52:17.331Z,100172.13
2023-01-04T22:54:44.763Z,100167.94
2023-01-04T22:57:12.187Z,100172.38
2023-01-04T22:59:39.655Z,100177.59
2023-01-04T23:02:09.995Z,100181.25
2023-01-04T23:04:37.541Z,100192.78
2023-01-04T23:07:06.377Z,100175.06
2023-01-04T23:09:33.787Z,100184.53
2023-01-04T23:12:03.106Z,100186.63
2023-01-04T23:14:30.519Z,100188.75
2023-01-04T23:16:57.929Z,100172.31
2023-01-04T23:19:25.335Z,100177.25
2023-01-04T23:21:52.740Z,100183.75
2023-01-04T23:24:21.472Z,100198.50
2023-01-04T23:26:52.046Z,100185.84
2023-01-04T23:29:19.411Z,100179.94
2023-01-04T23:31:46.845Z,100185.66
2023-01-04T23:34:15.448Z,100194.94
2023-01-04T23:36:44.114Z,100184.19
2023-01-04T23:39:15.180Z,100195.47
2023-01-04T23:41:47.662Z,100205.19
2023-01-04T23:44:17.896Z,100194.09
2023-01-04T23:46:47.592Z,100190.09
2023-01-04T23:49:15.102Z,100195.53
2023-01-04T23:51:43.466Z,100190.94
2023-01-04T23:54:11.481Z,100190.97
2023-01-04T23:56:39.541Z,100193.91
2023-01-04T23:59:08.915Z,100191.84
